Terminal Aerodrome Forecast
Issued by NWS Omaha/Valley, NE

Home | Current Version | Previous Version | Text Only | Print | Product List | Glossary On
Versions: 1 2 3 4 5 6 7 8 9 10 11 12 13 14 15 16 17 18 19 20 21 22 23 24 25 26 27 28 29 30 31 32 33 34 35 36 37 38 39 40 41 42 43 44 45 46 47 48 49 50
870
FTUS43 KOAX 271745 CCA
TAFLNK
TAF COR
KLNK 271745Z 2718/2818 12005KT P6SM SCT020 BKN050
     FM272200 12004KT P6SM VCSH OVC050
      TEMPO 2723/2802 5SM -TSRA BR BKN025CB
     FM280300 VRB04KT P6SM SCT025 OVC090 PROB30 2803/2806 4SM -TSRA
      BKN025CB
     FM280600 12004KT P6SM SCT025 BKN060
      TEMPO 2806/2810 BKN025=

USA.gov is the U.S. government's official web portal to all federal, state and local government web resources and services.